sensor_id;sensor_type;location;lat;lon;timestamp;temperature;humidity
1011;DHT22;494;48.744;10.106;2023-08-24T00:02:25;20.30;1.00
1011;DHT22;494;48.744;10.106;2023-08-24T00:04:59;20.30;1.00
1011;DHT22;494;48.744;10.106;2023-08-24T00:07:52;20.30;1.00
1011;DHT22;494;48.744;10.106;2023-08-24T00:10:35;20.30;1.00
1011;DHT22;494;48.744;10.106;2023-08-24T00:14:00;20.30;1.00
1011;DHT22;494;48.744;10.106;2023-08-24T00:16:37;20.20;1.00
1011;DHT22;494;48.744;10.106;2023-08-24T00:19:16;20.30;1.00
1011;DHT22;494;48.744;10.106;2023-08-24T00:22:09;20.30;1.00
1011;DHT22;494;48.744;10.106;2023-08-24T00:24:47;20.30;1.00
1011;DHT22;494;48.744;10.106;2023-08-24T00:27:23;20.30;1.00
1011;DHT22;494;48.744;10.106;2023-08-24T00:30:00;20.20;1.00
1011;DHT22;494;48.744;10.106;2023-08-24T00:32:56;20.30;1.00
1011;DHT22;494;48.744;10.106;2023-08-24T00:35:26;20.30;1.00
1011;DHT22;494;48.744;10.106;2023-08-24T00:37:56;20.30;1.00
1011;DHT22;494;48.744;10.106;2023-08-24T00:40:26;20.20;1.00
1011;DHT22;494;48.744;10.106;2023-08-24T00:42:56;20.10;1.00
1011;DHT22;494;48.744;10.106;2023-08-24T00:45:25;20.10;1.00
1011;DHT22;494;48.744;10.106;2023-08-24T00:47:55;20.10;1.00
1011;DHT22;494;48.744;10.106;2023-08-24T00:50:24;20.00;1.00
1011;DHT22;494;48.744;10.106;2023-08-24T00:52:54;20.00;1.00
1011;DHT22;494;48.744;10.106;2023-08-24T00:55:23;20.00;1.00
1011;DHT22;494;48.744;10.106;2023-08-24T00:57:55;20.00;1.00
1011;DHT22;494;48.744;10.106;2023-08-24T01:00:25;20.00;1.00
1011;DHT22;494;48.744;10.106;2023-08-24T01:02:54;20.00;1.00
1011;DHT22;494;48.744;10.106;2023-08-24T01:05:23;20.10;1.00
1011;DHT22;494;48.744;10.106;2023-08-24T01:07:54;20.00;1.00
1011;DHT22;494;48.744;10.106;2023-08-24T01:10:24;20.00;1.00
1011;DHT22;494;48.744;10.106;2023-08-24T01:13:06;20.00;1.00
1011;DHT22;494;48.744;10.106;2023-08-24T01:15:42;20.00;1.00
1011;DHT22;494;48.744;10.106;2023-08-24T01:18:17;20.00;1.00
1011;DHT22;494;48.744;10.106;2023-08-24T01:20:49;20.00;1.00
1011;DHT22;494;48.744;10.106;2023-08-24T01:23:36;20.10;1.00
1011;DHT22;494;48.744;10.106;2023-08-24T01:26:17;20.00;1.00
1011;DHT22;494;48.744;10.106;2023-08-24T01:28:47;19.80;1.00
1011;DHT22;494;48.744;10.106;2023-08-24T01:31:16;19.80;1.00
1011;DHT22;494;48.744;10.106;2023-08-24T01:33:46;19.80;1.00
1011;DHT22;494;48.744;10.106;2023-08-24T01:36:17;19.90;1.00
1011;DHT22;494;48.744;10.106;2023-08-24T01:38:53;19.90;1.00
1011;DHT22;494;48.744;10.106;2023-08-24T01:41:31;19.90;1.00
1011;DHT22;494;48.744;10.106;2023-08-24T01:44:06;19.90;1.00
1011;DHT22;494;48.744;10.106;2023-08-24T01:46:39;19.80;1.00
1011;DHT22;494;48.744;10.106;2023-08-24T01:49:13;19.80;1.00
1011;DHT22;494;48.744;10.106;2023-08-24T01:51:44;19.80;1.00
1011;DHT22;494;48.744;10.106;2023-08-24T01:54:14;19.80;1.00
1011;DHT22;494;48.744;10.106;2023-08-24T01:56:46;19.80;1.00
1011;DHT22;494;48.744;10.106;2023-08-24T01:59:15;19.80;1.00
1011;DHT22;494;48.744;10.106;2023-08-24T02:01:44;19.80;1.00
1011;DHT22;494;48.744;10.106;2023-08-24T02:04:16;19.90;1.00
1011;DHT22;494;48.744;10.106;2023-08-24T02:06:46;19.90;1.00
1011;DHT22;494;48.744;10.106;2023-08-24T02:09:15;19.90;1.00
1011;DHT22;494;48.744;10.106;2023-08-24T02:11:46;19.70;1.00
1011;DHT22;494;48.744;10.106;2023-08-24T02:14:15;19.70;1.00
1011;DHT22;494;48.744;10.106;2023-08-24T02:16:44;19.70;1.00
1011;DHT22;494;48.744;10.106;2023-08-24T02:19:14;19.70;1.00
1011;DHT22;494;48.744;10.106;2023-08-24T02:21:45;19.80;1.00
1011;DHT22;494;48.744;10.106;2023-08-24T02:24:17;19.80;1.00
1011;DHT22;494;48.744;10.106;2023-08-24T02:26:52;19.80;1.00
1011;DHT22;494;48.744;10.106;2023-08-24T02:29:21;19.80;1.00
1011;DHT22;494;48.744;10.106;2023-08-24T02:31:52;19.80;1.00
1011;DHT22;494;48.744;10.106;2023-08-24T02:34:21;19.70;1.00
1011;DHT22;494;48.744;10.106;2023-08-24T02:36:50;19.70;1.00
1011;DHT22;494;48.744;10.106;2023-08-24T02:39:19;19.70;1.00
1011;DHT22;494;48.744;10.106;2023-08-24T02:41:50;19.70;1.00
1011;DHT22;494;48.744;10.106;2023-08-24T02:44:20;19.70;1.00
1011;DHT22;494;48.744;10.106;2023-08-24T02:46:54;19.70;1.00
1011;DHT22;494;48.744;10.106;2023-08-24T02:49:23;19.80;1.00
1011;DHT22;494;48.744;10.106;2023-08-24T02:51:52;19.70;1.00
1011;DHT22;494;48.744;10.106;2023-08-24T02:54:25;19.70;1.00
1011;DHT22;494;48.744;10.106;2023-08-24T02:56:58;19.60;1.00
1011;DHT22;494;48.744;10.106;2023-08-24T02:59:31;19.60;1.00
1011;DHT22;494;48.744;10.106;2023-08-24T03:02:00;19.60;1.00
1011;DHT22;494;48.744;10.106;2023-08-24T03:04:30;19.60;1.00
1011;DHT22;494;48.744;10.106;2023-08-24T03:06:58;19.60;1.00
1011;DHT22;494;48.744;10.106;2023-08-24T03:09:28;19.60;1.00
1011;DHT22;494;48.744;10.106;2023-08-24T03:11:59;19.50;1.00
1011;DHT22;494;48.744;10.106;2023-08-24T03:14:30;19.40;1.00
1011;DHT22;494;48.744;10.106;2023-08-24T03:17:00;19.40;1.00
1011;DHT22;494;48.744;10.106;2023-08-24T03:19:31;19.40;1.00
1011;DHT22;494;48.744;10.106;2023-08-24T03:22:01;19.50;1.00
1011;DHT22;494;48.744;10.106;2023-08-24T03:24:30;19.50;1.00
1011;DHT22;494;48.744;10.106;2023-08-24T03:27:01;19.50;1.00
1011;DHT22;494;48.744;10.106;2023-08-24T03:29:32;19.50;1.00
1011;DHT22;494;48.744;10.106;2023-08-24T03:32:01;19.50;1.00
1011;DHT22;494;48.744;10.106;2023-08-24T03:34:31;19.50;1.00
1011;DHT22;494;48.744;10.106;2023-08-24T03:36:59;19.50;1.00
1011;DHT22;494;48.744;10.106;2023-08-24T03:39:28;19.50;1.00
1011;DHT22;494;48.744;10.106;2023-08-24T03:41:57;19.50;1.00
1011;DHT22;494;48.744;10.106;2023-08-24T03:44:28;19.50;1.00
1011;DHT22;494;48.744;10.106;2023-08-24T03:46:58;19.50;1.00
1011;DHT22;494;48.744;10.106;2023-08-24T03:49:27;19.60;1.00
1011;DHT22;494;48.744;10.106;2023-08-24T03:51:57;19.60;1.00
1011;DHT22;494;48.744;10.106;2023-08-24T03:54:29;19.60;1.00
1011;DHT22;494;48.744;10.106;2023-08-24T03:56:58;19.50;1.00
1011;DHT22;494;48.744;10.106;2023-08-24T03:59:29;19.50;1.00
1011;DHT22;494;48.744;10.106;2023-08-24T04:02:00;19.50;1.00
1011;DHT22;494;48.744;10.106;2023-08-24T04:04:30;19.50;1.00
1011;DHT22;494;48.744;10.106;2023-08-24T04:07:00;19.50;1.00
1011;DHT22;494;48.744;10.106;2023-08-24T04:09:30;19.50;1.00
1011;DHT22;494;48.744;10.106;2023-08-24T04:11:59;19.50;1.00
1011;DHT22;494;48.744;10.106;2023-08-24T04:14:30;19.50;1.00
1011;DHT22;494;48.744;10.106;2023-08-24T04:16:59;19.50;1.00
1011;DHT22;494;48.744;10.106;2023-08-24T04:19:28;19.50;1.00
1011;DHT22;494;48.744;10.106;2023-08-24T04:21:59;19.40;1.00
1011;DHT22;494;48.744;10.106;2023-08-24T04:24:29;19.40;1.00
1011;DHT22;494;48.744;10.106;2023-08-24T04:26:58;19.40;1.00
1011;DHT22;494;48.744;10.106;2023-08-24T04:29:27;19.40;1.00
1011;DHT22;494;48.744;10.106;2023-08-24T04:31:57;19.40;1.00
1011;DHT22;494;48.744;10.106;2023-08-24T04:34:26;19.40;1.00
1011;DHT22;494;48.744;10.106;2023-08-24T04:36:56;19.30;1.00
1011;DHT22;494;48.744;10.106;2023-08-24T04:39:25;19.50;1.00
1011;DHT22;494;48.744;10.106;2023-08-24T04:41:53;19.50;1.00
1011;DHT22;494;48.744;10.106;2023-08-24T04:44:23;19.50;1.00
1011;DHT22;494;48.744;10.106;2023-08-24T04:46:52;19.60;1.00
1011;DHT22;494;48.744;10.106;2023-08-24T04:49:24;19.60;1.00
1011;DHT22;494;48.744;10.106;2023-08-24T04:51:53;19.60;1.00
1011;DHT22;494;48.744;10.106;2023-08-24T04:54:23;19.70;1.00
1011;DHT22;494;48.744;10.106;2023-08-24T04:56:55;19.70;1.00
1011;DHT22;494;48.744;10.106;2023-08-24T04:59:25;19.80;1.00
1011;DHT22;494;48.744;10.106;2023-08-24T05:01:54;19.80;1.00
1011;DHT22;494;48.744;10.106;2023-08-24T05:04:26;19.90;1.00
1011;DHT22;494;48.744;10.106;2023-08-24T05:06:56;19.90;1.00
1011;DHT22;494;48.744;10.106;2023-08-24T05:09:26;20.10;1.00
1011;DHT22;494;48.744;10.106;2023-08-24T05:11:56;20.10;1.00
1011;DHT22;494;48.744;10.106;2023-08-24T05:14:25;20.30;1.00
1011;DHT22;494;48.744;10.106;2023-08-24T05:16:55;20.30;1.00
1011;DHT22;494;48.744;10.106;2023-08-24T05:19:25;20.40;1.00
1011;DHT22;494;48.744;10.106;2023-08-24T05:21:56;20.50;1.00
1011;DHT22;494;48.744;10.106;2023-08-24T05:24:24;20.50;1.00
1011;DHT22;494;48.744;10.106;2023-08-24T05:26:53;20.60;1.00
1011;DHT22;494;48.744;10.106;2023-08-24T05:29:22;20.60;1.00
1011;DHT22;494;48.744;10.106;2023-08-24T05:31:51;20.70;1.00
1011;DHT22;494;48.744;10.106;2023-08-24T05:34:21;20.80;1.00
1011;DHT22;494;48.744;10.106;2023-08-24T05:36:52;20.80;1.00
1011;DHT22;494;48.744;10.106;2023-08-24T05:39:21;20.80;1.00
1011;DHT22;494;48.744;10.106;2023-08-24T05:41:51;20.90;1.00
1011;DHT22;494;48.744;10.106;2023-08-24T05:44:20;21.00;1.00
1011;DHT22;494;48.744;10.106;2023-08-24T05:46:50;21.10;1.00
1011;DHT22;494;48.744;10.106;2023-08-24T05:49:19;21.10;1.00
1011;DHT22;494;48.744;10.106;2023-08-24T05:51:51;21.20;1.00
1011;DHT22;494;48.744;10.106;2023-08-24T05:54:21;21.30;1.00
1011;DHT22;494;48.744;10.106;2023-08-24T05:56:52;21.30;1.00
1011;DHT22;494;48.744;10.106;2023-08-24T05:59:21;21.30;1.00
1011;DHT22;494;48.744;10.106;2023-08-24T06:01:50;21.40;1.00
1011;DHT22;494;48.744;10.106;2023-08-24T06:04:20;21.40;1.00
1011;DHT22;494;48.744;10.106;2023-08-24T06:06:49;21.50;1.00
1011;DHT22;494;48.744;10.106;2023-08-24T06:09:22;21.60;1.00
1011;DHT22;494;48.744;10.106;2023-08-24T06:11:53;21.60;1.00
1011;DHT22;494;48.744;10.106;2023-08-24T06:14:22;21.60;1.00
1011;DHT22;494;48.744;10.106;2023-08-24T06:17:02;21.70;1.00
1011;DHT22;494;48.744;10.106;2023-08-24T06:20:05;21.70;1.00
1011;DHT22;494;48.744;10.106;2023-08-24T06:23:25;21.80;1.00
1011;DHT22;494;48.744;10.106;2023-08-24T06:26:14;21.80;1.00
1011;DHT22;494;48.744;10.106;2023-08-24T06:28:56;21.90;1.00
1011;DHT22;494;48.744;10.106;2023-08-24T06:32:07;22.00;1.00
1011;DHT22;494;48.744;10.106;2023-08-24T06:34:56;22.10;1.00
1011;DHT22;494;48.744;10.106;2023-08-24T06:37:42;22.30;1.00
1011;DHT22;494;48.744;10.106;2023-08-24T06:40:37;22.60;1.00
1011;DHT22;494;48.744;10.106;2023-08-24T06:43:19;22.80;1.00
1011;DHT22;494;48.744;10.106;2023-08-24T06:46:17;23.00;1.00
1011;DHT22;494;48.744;10.106;2023-08-24T06:49:39;23.10;1.00
1011;DHT22;494;48.744;10.106;2023-08-24T06:52:30;23.30;1.00
1011;DHT22;494;48.744;10.106;2023-08-24T06:55:37;23.40;1.00
1011;DHT22;494;48.744;10.106;2023-08-24T06:58:47;23.60;1.00
1011;DHT22;494;48.744;10.106;2023-08-24T07:02:00;24.00;1.00
1011;DHT22;494;48.744;10.106;2023-08-24T07:05:16;24.30;1.00
1011;DHT22;494;48.744;10.106;2023-08-24T07:08:00;24.50;1.00
1011;DHT22;494;48.744;10.106;2023-08-24T07:10:42;24.80;1.00
1011;DHT22;494;48.744;10.106;2023-08-24T07:13:43;24.90;1.00
1011;DHT22;494;48.744;10.106;2023-08-24T07:16:31;25.20;1.00
1011;DHT22;494;48.744;10.106;2023-08-24T07:19:18;25.50;1.00
1011;DHT22;494;48.744;10.106;2023-08-24T07:22:03;25.80;1.00
1011;DHT22;494;48.744;10.106;2023-08-24T07:24:58;26.20;1.00
1011;DHT22;494;48.744;10.106;2023-08-24T07:27:45;26.50;1.00
1011;DHT22;494;48.744;10.106;2023-08-24T07:30:49;26.70;1.00
1011;DHT22;494;48.744;10.106;2023-08-24T07:33:24;26.80;1.00
1011;DHT22;494;48.744;10.106;2023-08-24T07:35:55;26.90;1.00
1011;DHT22;494;48.744;10.106;2023-08-24T07:38:26;27.00;1.00
1011;DHT22;494;48.744;10.106;2023-08-24T07:40:56;27.10;1.00
1011;DHT22;494;48.744;10.106;2023-08-24T07:43:25;27.20;1.00
1011;DHT22;494;48.744;10.106;2023-08-24T07:45:57;27.30;1.00
1011;DHT22;494;48.744;10.106;2023-08-24T07:48:30;27.40;1.00
1011;DHT22;494;48.744;10.106;2023-08-24T07:50:59;27.40;1.00
1011;DHT22;494;48.744;10.106;2023-08-24T07:53:32;27.60;1.00
1011;DHT22;494;48.744;10.106;2023-08-24T07:56:01;27.70;1.00
1011;DHT22;494;48.744;10.106;2023-08-24T07:58:30;27.80;1.00
1011;DHT22;494;48.744;10.106;2023-08-24T08:01:01;27.90;1.00
1011;DHT22;494;48.744;10.106;2023-08-24T08:03:30;27.90;1.00
1011;DHT22;494;48.744;10.106;2023-08-24T08:06:02;27.80;1.00
1011;DHT22;494;48.744;10.106;2023-08-24T08:08:32;27.90;1.00
1011;DHT22;494;48.744;10.106;2023-08-24T08:11:05;28.20;1.00
1011;DHT22;494;48.744;10.106;2023-08-24T08:13:34;28.50;1.00
1011;DHT22;494;48.744;10.106;2023-08-24T08:16:08;28.80;1.00
1011;DHT22;494;48.744;10.106;2023-08-24T08:18:41;29.00;1.00
1011;DHT22;494;48.744;10.106;2023-08-24T08:21:15;29.20;1.00
1011;DHT22;494;48.744;10.106;2023-08-24T08:23:49;29.30;1.00
1011;DHT22;494;48.744;10.106;2023-08-24T08:26:19;29.40;1.00
1011;DHT22;494;48.744;10.106;2023-08-24T08:28:50;29.40;1.00
1011;DHT22;494;48.744;10.106;2023-08-24T08:31:25;29.50;1.00
1011;DHT22;494;48.744;10.106;2023-08-24T08:33:59;29.50;1.00
1011;DHT22;494;48.744;10.106;2023-08-24T08:36:31;29.60;1.00
1011;DHT22;494;48.744;10.106;2023-08-24T08:39:01;29.70;1.00
1011;DHT22;494;48.744;10.106;2023-08-24T08:41:40;30.10;1.00
1011;DHT22;494;48.744;10.106;2023-08-24T08:44:21;30.30;1.00
1011;DHT22;494;48.744;10.106;2023-08-24T08:46:56;30.50;1.00
1011;DHT22;494;48.744;10.106;2023-08-24T08:49:26;30.70;1.00
1011;DHT22;494;48.744;10.106;2023-08-24T08:51:59;30.90;1.00
1011;DHT22;494;48.744;10.106;2023-08-24T08:54:31;31.00;1.00
1011;DHT22;494;48.744;10.106;2023-08-24T08:57:04;31.00;1.00
1011;DHT22;494;48.744;10.106;2023-08-24T08:59:35;31.10;1.00
1011;DHT22;494;48.744;10.106;2023-08-24T09:02:13;31.20;1.00
1011;DHT22;494;48.744;10.106;2023-08-24T09:04:46;31.40;1.00
1011;DHT22;494;48.744;10.106;2023-08-24T09:07:19;31.70;1.00
1011;DHT22;494;48.744;10.106;2023-08-24T09:09:52;32.00;1.00
1011;DHT22;494;48.744;10.106;2023-08-24T09:12:21;32.20;1.00
1011;DHT22;494;48.744;10.106;2023-08-24T09:14:49;32.20;1.00
1011;DHT22;494;48.744;10.106;2023-08-24T09:17:23;32.30;1.00
1011;DHT22;494;48.744;10.106;2023-08-24T09:19:58;32.40;1.00
1011;DHT22;494;48.744;10.106;2023-08-24T09:22:28;32.50;1.00
1011;DHT22;494;48.744;10.106;2023-08-24T09:25:05;32.60;1.00
1011;DHT22;494;48.744;10.106;2023-08-24T09:27:38;32.70;1.00
1011;DHT22;494;48.744;10.106;2023-08-24T09:30:10;32.90;1.00
1011;DHT22;494;48.744;10.106;2023-08-24T09:32:45;32.90;1.00
1011;DHT22;494;48.744;10.106;2023-08-24T09:35:20;33.10;1.00
1011;DHT22;494;48.744;10.106;2023-08-24T09:37:55;33.30;1.00
1011;DHT22;494;48.744;10.106;2023-08-24T09:40:27;33.50;1.00
1011;DHT22;494;48.744;10.106;2023-08-24T09:42:56;33.60;1.00
1011;DHT22;494;48.744;10.106;2023-08-24T09:45:38;33.80;1.00
1011;DHT22;494;48.744;10.106;2023-08-24T09:48:19;33.90;1.00
1011;DHT22;494;48.744;10.106;2023-08-24T09:50:54;34.10;1.00
1011;DHT22;494;48.744;10.106;2023-08-24T09:53:29;34.30;1.00
1011;DHT22;494;48.744;10.106;2023-08-24T09:56:02;34.40;1.00
1011;DHT22;494;48.744;10.106;2023-08-24T09:58:38;34.60;1.00
1011;DHT22;494;48.744;10.106;2023-08-24T10:01:08;34.70;1.00
1011;DHT22;494;48.744;10.106;2023-08-24T10:03:40;34.70;1.00
1011;DHT22;494;48.744;10.106;2023-08-24T10:06:13;34.80;1.00
1011;DHT22;494;48.744;10.106;2023-08-24T10:08:47;34.90;1.00
1011;DHT22;494;48.744;10.106;2023-08-24T10:11:24;35.20;1.00
1011;DHT22;494;48.744;10.106;2023-08-24T10:14:00;35.30;1.00
1011;DHT22;494;48.744;10.106;2023-08-24T10:16:37;35.40;1.00
1011;DHT22;494;48.744;10.106;2023-08-24T10:19:18;35.70;1.00
1011;DHT22;494;48.744;10.106;2023-08-24T10:21:53;35.80;1.00
1011;DHT22;494;48.744;10.106;2023-08-24T10:24:27;36.00;1.00
1011;DHT22;494;48.744;10.106;2023-08-24T10:26:57;36.20;1.00
1011;DHT22;494;48.744;10.106;2023-08-24T10:29:50;36.20;1.00
1011;DHT22;494;48.744;10.106;2023-08-24T10:32:20;36.00;1.00
1011;DHT22;494;48.744;10.106;2023-08-24T10:34:55;36.20;1.00
1011;DHT22;494;48.744;10.106;2023-08-24T10:37:26;36.30;1.00
1011;DHT22;494;48.744;10.106;2023-08-24T10:39:56;36.40;1.00
1011;DHT22;494;48.744;10.106;2023-08-24T10:42:27;36.50;1.00
1011;DHT22;494;48.744;10.106;2023-08-24T10:44:56;36.50;1.00
1011;DHT22;494;48.744;10.106;2023-08-24T10:47:28;36.60;1.00
1011;DHT22;494;48.744;10.106;2023-08-24T10:50:00;36.60;1.00
1011;DHT22;494;48.744;10.106;2023-08-24T10:52:32;36.60;1.00
1011;DHT22;494;48.744;10.106;2023-08-24T10:55:21;36.60;1.00
1011;DHT22;494;48.744;10.106;2023-08-24T10:57:57;36.70;1.00
1011;DHT22;494;48.744;10.106;2023-08-24T11:00:30;36.70;1.00
1011;DHT22;494;48.744;10.106;2023-08-24T11:03:00;36.70;1.00
1011;DHT22;494;48.744;10.106;2023-08-24T11:05:32;36.80;1.00
1011;DHT22;494;48.744;10.106;2023-08-24T11:08:03;36.80;1.00
1011;DHT22;494;48.744;10.106;2023-08-24T11:10:45;37.00;1.00
1011;DHT22;494;48.744;10.106;2023-08-24T11:13:16;37.00;1.00
1011;DHT22;494;48.744;10.106;2023-08-24T11:15:47;37.20;1.00
1011;DHT22;494;48.744;10.106;2023-08-24T11:18:23;37.30;1.00
1011;DHT22;494;48.744;10.106;2023-08-24T11:20:59;37.20;1.00
1011;DHT22;494;48.744;10.106;2023-08-24T11:23:35;37.30;1.00
1011;DHT22;494;48.744;10.106;2023-08-24T11:26:05;37.50;1.00
1011;DHT22;494;48.744;10.106;2023-08-24T11:28:38;37.60;1.00
1011;DHT22;494;48.744;10.106;2023-08-24T11:31:09;37.70;1.00
1011;DHT22;494;48.744;10.106;2023-08-24T11:33:59;37.90;1.00
1011;DHT22;494;48.744;10.106;2023-08-24T11:37:18;38.10;1.00
1011;DHT22;494;48.744;10.106;2023-08-24T11:39:48;38.20;1.00
1011;DHT22;494;48.744;10.106;2023-08-24T11:42:21;38.20;1.00
1011;DHT22;494;48.744;10.106;2023-08-24T11:44:50;38.30;1.00
1011;DHT22;494;48.744;10.106;2023-08-24T11:47:20;38.60;1.00
1011;DHT22;494;48.744;10.106;2023-08-24T11:49:50;38.70;1.00
1011;DHT22;494;48.744;10.106;2023-08-24T11:52:22;38.90;1.00
1011;DHT22;494;48.744;10.106;2023-08-24T11:54:51;38.90;1.00
1011;DHT22;494;48.744;10.106;2023-08-24T11:57:22;38.90;1.00
1011;DHT22;494;48.744;10.106;2023-08-24T11:59:55;39.00;1.00
1011;DHT22;494;48.744;10.106;2023-08-24T12:02:24;39.10;1.00
1011;DHT22;494;48.744;10.106;2023-08-24T12:04:55;39.10;1.00
1011;DHT22;494;48.744;10.106;2023-08-24T12:07:25;39.20;1.00
1011;DHT22;494;48.744;10.106;2023-08-24T12:10:00;39.20;1.00
1011;DHT22;494;48.744;10.106;2023-08-24T12:12:32;39.40;1.00
1011;DHT22;494;48.744;10.106;2023-08-24T12:15:01;39.50;1.00
1011;DHT22;494;48.744;10.106;2023-08-24T12:17:41;39.40;1.00
1011;DHT22;494;48.744;10.106;2023-08-24T12:20:19;39.10;1.00
1011;DHT22;494;48.744;10.106;2023-08-24T12:22:52;39.00;1.00
1011;DHT22;494;48.744;10.106;2023-08-24T12:25:26;39.10;1.00
1011;DHT22;494;48.744;10.106;2023-08-24T12:28:09;39.20;1.00
1011;DHT22;494;48.744;10.106;2023-08-24T12:30:46;39.30;1.00
1011;DHT22;494;48.744;10.106;2023-08-24T12:33:27;39.50;1.00
1011;DHT22;494;48.744;10.106;2023-08-24T12:35:58;39.60;1.00
1011;DHT22;494;48.744;10.106;2023-08-24T12:38:29;39.60;1.00
1011;DHT22;494;48.744;10.106;2023-08-24T12:40:59;39.70;1.00
1011;DHT22;494;48.744;10.106;2023-08-24T12:43:28;39.70;1.00
1011;DHT22;494;48.744;10.106;2023-08-24T12:45:58;39.80;1.00
1011;DHT22;494;48.744;10.106;2023-08-24T12:48:27;40.00;1.00
1011;DHT22;494;48.744;10.106;2023-08-24T12:50:59;40.00;1.00
1011;DHT22;494;48.744;10.106;2023-08-24T12:53:30;40.10;1.00
1011;DHT22;494;48.744;10.106;2023-08-24T12:56:00;40.20;1.00
1011;DHT22;494;48.744;10.106;2023-08-24T12:58:30;40.20;1.00
1011;DHT22;494;48.744;10.106;2023-08-24T13:01:06;40.40;1.00
1011;DHT22;494;48.744;10.106;2023-08-24T13:03:36;40.50;1.00
1011;DHT22;494;48.744;10.106;2023-08-24T13:06:07;40.80;1.00
1011;DHT22;494;48.744;10.106;2023-08-24T13:08:53;40.90;1.00
1011;DHT22;494;48.744;10.106;2023-08-24T13:11:22;41.00;1.00
1011;DHT22;494;48.744;10.106;2023-08-24T13:13:55;41.00;1.00
1011;DHT22;494;48.744;10.106;2023-08-24T13:16:26;40.80;1.00
1011;DHT22;494;48.744;10.106;2023-08-24T13:18:56;40.60;1.00
1011;DHT22;494;48.744;10.106;2023-08-24T13:21:27;40.20;1.00
1011;DHT22;494;48.744;10.106;2023-08-24T13:23:58;39.90;1.00
1011;DHT22;494;48.744;10.106;2023-08-24T13:26:28;39.50;1.00
1011;DHT22;494;48.744;10.106;2023-08-24T13:28:58;39.50;1.00
1011;DHT22;494;48.744;10.106;2023-08-24T13:31:29;39.50;1.00
1011;DHT22;494;48.744;10.106;2023-08-24T13:33:58;39.80;1.00
1011;DHT22;494;48.744;10.106;2023-08-24T13:36:29;40.20;1.00
1011;DHT22;494;48.744;10.106;2023-08-24T13:39:00;40.40;1.00
1011;DHT22;494;48.744;10.106;2023-08-24T13:41:35;40.50;1.00
1011;DHT22;494;48.744;10.106;2023-08-24T13:44:08;40.50;1.00
1011;DHT22;494;48.744;10.106;2023-08-24T13:46:37;40.30;1.00
1011;DHT22;494;48.744;10.106;2023-08-24T13:49:09;40.10;1.00
1011;DHT22;494;48.744;10.106;2023-08-24T13:51:55;40.00;1.00
1011;DHT22;494;48.744;10.106;2023-08-24T13:54:26;39.80;1.00
1011;DHT22;494;48.744;10.106;2023-08-24T13:56:57;39.60;1.00
1011;DHT22;494;48.744;10.106;2023-08-24T13:59:28;39.60;1.00
1011;DHT22;494;48.744;10.106;2023-08-24T14:01:57;39.50;1.00
1011;DHT22;494;48.744;10.106;2023-08-24T14:04:26;39.70;1.00
1011;DHT22;494;48.744;10.106;2023-08-24T14:06:55;39.90;1.00
1011;DHT22;494;48.744;10.106;2023-08-24T14:09:27;40.00;1.00
1011;DHT22;494;48.744;10.106;2023-08-24T14:11:57;40.30;1.00
1011;DHT22;494;48.744;10.106;2023-08-24T14:14:26;40.40;1.00
1011;DHT22;494;48.744;10.106;2023-08-24T14:16:56;40.60;1.00
1011;DHT22;494;48.744;10.106;2023-08-24T14:19:26;40.80;1.00
1011;DHT22;494;48.744;10.106;2023-08-24T14:21:59;41.00;1.00
1011;DHT22;494;48.744;10.106;2023-08-24T14:24:30;41.20;1.00
1011;DHT22;494;48.744;10.106;2023-08-24T14:27:04;41.60;1.00
1011;DHT22;494;48.744;10.106;2023-08-24T14:29:33;41.90;1.00
1011;DHT22;494;48.744;10.106;2023-08-24T14:32:02;42.10;1.00
1011;DHT22;494;48.744;10.106;2023-08-24T14:34:31;42.00;1.00
1011;DHT22;494;48.744;10.106;2023-08-24T14:37:00;42.00;1.00
1011;DHT22;494;48.744;10.106;2023-08-24T14:39:33;41.80;1.00
1011;DHT22;494;48.744;10.106;2023-08-24T14:42:03;41.80;1.00
1011;DHT22;494;48.744;10.106;2023-08-24T14:44:32;41.80;1.00
1011;DHT22;494;48.744;10.106;2023-08-24T14:47:02;41.70;1.00
1011;DHT22;494;48.744;10.106;2023-08-24T14:49:32;41.50;1.00
1011;DHT22;494;48.744;10.106;2023-08-24T14:52:00;41.10;1.00
1011;DHT22;494;48.744;10.106;2023-08-24T14:54:29;40.50;1.00
1011;DHT22;494;48.744;10.106;2023-08-24T14:57:00;39.90;1.00
1011;DHT22;494;48.744;10.106;2023-08-24T14:59:30;39.50;1.00
1011;DHT22;494;48.744;10.106;2023-08-24T15:01:59;39.10;1.00
1011;DHT22;494;48.744;10.106;2023-08-24T15:04:29;38.70;1.00
1011;DHT22;494;48.744;10.106;2023-08-24T15:06:58;38.30;1.00
1011;DHT22;494;48.744;10.106;2023-08-24T15:09:27;38.10;1.00
1011;DHT22;494;48.744;10.106;2023-08-24T15:11:58;37.90;1.00
1011;DHT22;494;48.744;10.106;2023-08-24T15:14:30;37.60;1.00
1011;DHT22;494;48.744;10.106;2023-08-24T15:17:00;37.20;1.00
1011;DHT22;494;48.744;10.106;2023-08-24T15:19:29;37.00;1.00
1011;DHT22;494;48.744;10.106;2023-08-24T15:21:58;36.70;1.00
1011;DHT22;494;48.744;10.106;2023-08-24T15:24:27;36.30;1.00
1011;DHT22;494;48.744;10.106;2023-08-24T15:26:57;36.00;1.00
1011;DHT22;494;48.744;10.106;2023-08-24T15:29:26;35.70;1.00
1011;DHT22;494;48.744;10.106;2023-08-24T15:31:55;35.40;1.00
1011;DHT22;494;48.744;10.106;2023-08-24T15:34:24;35.00;1.00
1011;DHT22;494;48.744;10.106;2023-08-24T15:36:55;34.70;1.00
1011;DHT22;494;48.744;10.106;2023-08-24T15:39:24;34.40;1.00
1011;DHT22;494;48.744;10.106;2023-08-24T15:41:52;34.10;1.00
1011;DHT22;494;48.744;10.106;2023-08-24T15:44:22;33.80;1.00
1011;DHT22;494;48.744;10.106;2023-08-24T15:46:51;33.50;1.00
1011;DHT22;494;48.744;10.106;2023-08-24T15:49:22;33.30;1.00
1011;DHT22;494;48.744;10.106;2023-08-24T15:51:52;33.10;1.00
1011;DHT22;494;48.744;10.106;2023-08-24T15:54:21;32.60;1.00
1011;DHT22;494;48.744;10.106;2023-08-24T15:56:52;32.20;1.00
1011;DHT22;494;48.744;10.106;2023-08-24T15:59:24;32.00;1.00
1011;DHT22;494;48.744;10.106;2023-08-24T16:01:53;31.90;1.00
1011;DHT22;494;48.744;10.106;2023-08-24T16:04:22;31.80;1.00
1011;DHT22;494;48.744;10.106;2023-08-24T16:06:50;31.70;1.00
1011;DHT22;494;48.744;10.106;2023-08-24T16:09:19;31.50;1.00
1011;DHT22;494;48.744;10.106;2023-08-24T16:11:48;31.30;1.00
1011;DHT22;494;48.744;10.106;2023-08-24T16:14:17;31.20;1.00
1011;DHT22;494;48.744;10.106;2023-08-24T16:16:47;31.10;1.00
1011;DHT22;494;48.744;10.106;2023-08-24T16:19:16;31.00;1.00
1011;DHT22;494;48.744;10.106;2023-08-24T16:21:45;30.90;1.00
1011;DHT22;494;48.744;10.106;2023-08-24T16:24:14;30.70;1.00
1011;DHT22;494;48.744;10.106;2023-08-24T16:26:43;30.40;1.00
1011;DHT22;494;48.744;10.106;2023-08-24T16:29:12;30.20;1.00
1011;DHT22;494;48.744;10.106;2023-08-24T16:31:40;30.10;1.00
1011;DHT22;494;48.744;10.106;2023-08-24T16:34:11;29.90;1.00
1011;DHT22;494;48.744;10.106;2023-08-24T16:36:39;29.90;1.00
1011;DHT22;494;48.744;10.106;2023-08-24T16:39:09;29.80;1.00
1011;DHT22;494;48.744;10.106;2023-08-24T16:41:38;29.70;1.00
1011;DHT22;494;48.744;10.106;2023-08-24T16:44:07;29.60;1.00
1011;DHT22;494;48.744;10.106;2023-08-24T16:46:37;29.40;1.00
1011;DHT22;494;48.744;10.106;2023-08-24T16:49:05;29.30;1.00
1011;DHT22;494;48.744;10.106;2023-08-24T16:51:36;29.20;1.00
1011;DHT22;494;48.744;10.106;2023-08-24T16:54:05;29.00;1.00
1011;DHT22;494;48.744;10.106;2023-08-24T16:56:33;28.90;1.00
1011;DHT22;494;48.744;10.106;2023-08-24T16:59:02;28.90;1.00